Time;durP1;ratioP1;P1;durP2;ratioP2;P2;SDS_P1;SDS_P2;PMS_P1;PMS_P2;Temp;Humidity;BMP_temperature;BMP_pressure;BME280_temperature;BME280_humidity;BME280_pressure;Samples;Min_cycle;Max_cycle;Signal;HPM_P1;HPM_P2
2023/05/12 00:00:57;;;;;;;7.70;5.82;;;10.60;99.90;;;;;;5073138;28;20044;-62
2023/05/12 00:03:24;;;;;;;10.20;6.35;;;10.60;99.90;;;;;;5073100;28;20094;-63
2023/05/12 00:05:51;;;;;;;8.90;6.03;;;10.60;99.90;;;;;;5072753;28;20090;-64
2023/05/12 00:08:17;;;;;;;8.63;6.40;;;10.60;99.90;;;;;;5058926;28;20127;-63
2023/05/12 00:10:44;;;;;;;7.85;6.57;;;10.60;99.90;;;;;;5076667;28;20051;-62
2023/05/12 00:13:11;;;;;;;11.07;6.40;;;10.60;99.90;;;;;;5058514;28;20090;-63
2023/05/12 00:15:38;;;;;;;8.50;6.43;;;10.60;99.90;;;;;;5076575;28;20063;-63
2023/05/12 00:18:04;;;;;;;8.55;6.70;;;10.60;99.90;;;;;;5076560;28;20072;-62
2023/05/12 00:20:31;;;;;;;10.45;7.80;;;10.60;99.90;;;;;;5076254;28;20419;-64
2023/05/12 00:22:58;;;;;;;12.05;7.28;;;10.60;99.90;;;;;;5076454;28;20098;-64
2023/05/12 00:25:25;;;;;;;12.57;7.93;;;10.50;99.90;;;;;;5076663;28;20040;-63
2023/05/12 00:27:51;;;;;;;13.68;8.35;;;10.50;99.90;;;;;;5076160;28;20032;-62
2023/05/12 00:30:18;;;;;;;13.55;7.55;;;10.40;99.90;;;;;;5058153;28;20040;-64
2023/05/12 00:32:45;;;;;;;10.77;7.38;;;10.40;99.90;;;;;;5076374;28;20037;-63
2023/05/12 00:35:12;;;;;;;9.10;6.50;;;10.40;99.90;;;;;;5076536;28;20045;-61
2023/05/12 00:37:39;;;;;;;14.77;7.28;;;10.40;99.90;;;;;;5075991;28;20109;-61
2023/05/12 00:40:06;;;;;;;10.13;6.35;;;10.30;99.90;;;;;;5075700;28;20086;-62
2023/05/12 00:42:33;;;;;;;10.05;6.20;;;10.30;99.90;;;;;;5076016;28;20515;-63
2023/05/12 00:44:59;;;;;;;8.68;6.03;;;10.30;99.90;;;;;;5058218;28;20051;-63
2023/05/12 00:47:26;;;;;;;10.68;6.35;;;10.30;99.90;;;;;;5076400;28;20107;-63
2023/05/12 00:49:53;;;;;;;9.18;7.15;;;10.20;99.90;;;;;;5057756;28;20041;-61
2023/05/12 00:52:20;;;;;;;10.05;7.90;;;10.30;99.90;;;;;;5057781;28;20041;-64
2023/05/12 00:54:47;;;;;;;11.95;8.38;;;10.20;99.90;;;;;;5057708;28;20043;-61
2023/05/12 00:57:14;;;;;;;9.00;7.63;;;10.20;99.90;;;;;;5057730;28;20036;-61
2023/05/12 00:59:41;;;;;;;11.95;9.13;;;10.20;99.90;;;;;;5075748;28;20060;-63
2023/05/12 01:02:07;;;;;;;11.23;8.85;;;10.20;99.90;;;;;;5075951;28;20040;-62
2023/05/12 01:04:35;;;;;;;10.98;8.70;;;10.20;99.90;;;;;;5057879;28;20107;-63
2023/05/12 01:07:04;;;;;;;11.25;9.20;;;10.20;99.90;;;;;;5057961;28;20047;-62
2023/05/12 01:09:32;;;;;;;13.05;10.18;;;10.20;99.90;;;;;;5075973;28;20391;-63
2023/05/12 01:11:59;;;;;;;12.88;9.63;;;10.20;99.90;;;;;;5057820;28;20062;-63
2023/05/12 01:14:25;;;;;;;11.65;8.98;;;10.20;99.90;;;;;;5058086;28;20395;-63
2023/05/12 01:16:53;;;;;;;15.45;9.65;;;10.20;99.90;;;;;;5053968;28;20480;-64
2023/05/12 01:19:20;;;;;;;14.23;9.75;;;10.10;99.90;;;;;;5054309;28;20127;-63
2023/05/12 01:21:47;;;;;;;15.23;10.00;;;10.00;99.90;;;;;;5055272;28;20091;-62
2023/05/12 01:24:14;;;;;;;14.40;9.90;;;9.90;99.90;;;;;;5055828;28;20044;-62
2023/05/12 01:26:41;;;;;;;14.15;9.30;;;9.90;99.90;;;;;;5055288;28;20037;-62
2023/05/12 01:29:07;;;;;;;15.38;8.88;;;9.90;99.90;;;;;;5054126;28;20045;-61
2023/05/12 01:31:34;;;;;;;15.00;9.93;;;9.80;99.90;;;;;;5055081;28;20111;-63
2023/05/12 01:34:01;;;;;;;14.90;9.05;;;9.80;99.90;;;;;;5037889;28;20040;-62
2023/05/12 01:36:28;;;;;;;15.95;10.65;;;9.80;99.90;;;;;;5055195;28;20033;-63
2023/05/12 01:38:56;;;;;;;18.45;10.25;;;9.80;99.90;;;;;;5054044;28;20045;-61
2023/05/12 01:41:22;;;;;;;17.55;11.60;;;9.80;99.90;;;;;;5055441;28;20045;-63
2023/05/12 01:43:49;;;;;;;17.10;11.20;;;9.80;99.90;;;;;;5054221;28;20155;-63
2023/05/12 01:46:16;;;;;;;16.17;12.45;;;9.90;99.90;;;;;;5054191;28;20132;-64
2023/05/12 01:48:44;;;;;;;22.48;13.38;;;10.00;99.90;;;;;;5054012;28;20041;-63
2023/05/12 01:51:11;;;;;;;25.65;19.90;;;10.10;99.90;;;;;;5055239;28;20060;-60
2023/05/12 01:53:38;;;;;;;33.17;24.42;;;10.20;99.90;;;;;;5053691;28;20127;-64
2023/05/12 01:56:05;;;;;;;31.05;25.05;;;10.30;99.90;;;;;;5053824;28;20051;-64
2023/05/12 01:58:33;;;;;;;32.65;24.65;;;10.50;99.90;;;;;;5054093;28;20048;-63
2023/05/12 02:01:00;;;;;;;33.65;26.63;;;10.60;99.90;;;;;;5054059;28;20400;-61
2023/05/12 02:03:27;;;;;;;34.28;25.60;;;10.70;99.90;;;;;;5053388;28;20380;-62
2023/05/12 02:05:56;;;;;;;38.30;27.40;;;10.80;99.90;;;;;;5053473;28;20037;-63
2023/05/12 02:08:22;;;;;;;36.33;27.48;;;10.80;99.90;;;;;;5053332;28;20050;-62
2023/05/12 02:10:50;;;;;;;38.92;28.73;;;10.90;99.90;;;;;;5053281;28;20514;-62
2023/05/12 02:13:16;;;;;;;37.97;29.35;;;10.90;99.90;;;;;;5054673;28;20033;-64
2023/05/12 02:15:43;;;;;;;40.22;28.90;;;10.90;99.90;;;;;;5052896;28;20120;-62
2023/05/12 02:18:10;;;;;;;39.38;28.65;;;11.00;99.90;;;;;;5052996;28;20044;-63
2023/05/12 02:20:38;;;;;;;35.55;27.13;;;11.00;99.90;;;;;;5053257;28;20072;-63
2023/05/12 02:23:04;;;;;;;38.22;27.52;;;11.00;99.90;;;;;;5052959;28;20427;-63
2023/05/12 02:25:32;;;;;;;37.63;27.23;;;11.00;99.90;;;;;;5053380;28;20060;-64
2023/05/12 02:27:59;;;;;;;41.50;27.13;;;11.00;99.90;;;;;;5054709;28;20037;-62
2023/05/12 02:30:26;;;;;;;36.83;27.27;;;11.00;99.90;;;;;;5036127;28;20041;-63
2023/05/12 02:32:52;;;;;;;40.03;28.08;;;11.00;99.90;;;;;;5052739;28;20374;-61
2023/05/12 02:35:20;;;;;;;38.35;29.08;;;11.00;99.90;;;;;;5052611;28;20178;-63
2023/05/12 02:37:47;;;;;;;45.80;30.52;;;11.10;99.90;;;;;;5052745;28;20171;-64
2023/05/12 02:40:13;;;;;;;40.55;29.50;;;11.10;99.90;;;;;;5054617;28;20129;-61
2023/05/12 02:42:42;;;;;;;41.70;28.90;;;11.10;99.90;;;;;;5052672;28;20849;-63
2023/05/12 02:45:09;;;;;;;38.63;28.10;;;11.10;99.90;;;;;;5052620;28;20051;-63
2023/05/12 02:47:35;;;;;;;35.78;27.10;;;11.10;99.90;;;;;;5053808;28;20463;-63
2023/05/12 02:50:03;;;;;;;33.45;26.35;;;11.10;99.90;;;;;;5052874;28;20124;-62
2023/05/12 02:52:30;;;;;;;31.38;24.92;;;11.00;99.90;;;;;;5036537;28;20045;-63
2023/05/12 02:54:57;;;;;;;36.10;25.63;;;10.90;99.90;;;;;;5053009;28;20041;-62
2023/05/12 02:57:26;;;;;;;30.05;24.63;;;11.00;99.90;;;;;;5052306;28;20495;-62
2023/05/12 02:59:53;;;;;;;33.13;24.73;;;11.00;99.90;;;;;;5052776;28;20083;-62
2023/05/12 03:02:19;;;;;;;34.70;25.92;;;11.00;99.90;;;;;;5035863;28;20091;-61
2023/05/12 03:04:46;;;;;;;32.88;24.75;;;11.00;99.90;;;;;;5054029;28;20040;-63
2023/05/12 03:07:13;;;;;;;30.65;23.52;;;11.00;99.90;;;;;;5054189;28;20076;-62
2023/05/12 03:09:40;;;;;;;28.42;22.67;;;11.00;99.90;;;;;;5052538;28;20049;-62
2023/05/12 03:12:07;;;;;;;30.02;24.33;;;11.00;99.90;;;;;;5052050;28;20464;-61
2023/05/12 03:14:34;;;;;;;28.35;22.38;;;10.90;99.90;;;;;;5054002;28;20044;-64
2023/05/12 03:17:01;;;;;;;29.33;23.05;;;10.90;99.90;;;;;;5052070;28;20053;-62
2023/05/12 03:19:28;;;;;;;28.65;22.52;;;10.90;99.90;;;;;;5053405;28;20037;-63
2023/05/12 03:21:54;;;;;;;26.50;21.02;;;11.00;99.90;;;;;;5053404;28;20115;-61
2023/05/12 03:24:21;;;;;;;22.67;20.15;;;11.00;99.90;;;;;;5052374;28;20045;-63
2023/05/12 03:26:48;;;;;;;25.15;20.80;;;11.00;99.90;;;;;;5053256;28;20047;-63
2023/05/12 03:29:14;;;;;;;20.48;18.02;;;11.00;99.90;;;;;;5053705;28;20376;-62
2023/05/12 03:31:42;;;;;;;19.73;16.75;;;10.90;99.90;;;;;;5052230;28;20063;-63
2023/05/12 03:34:09;;;;;;;21.08;16.65;;;11.00;99.90;;;;;;5052165;28;20091;-63
2023/05/12 03:36:36;;;;;;;17.95;16.05;;;11.00;99.90;;;;;;5052063;28;20049;-63
2023/05/12 03:39:03;;;;;;;18.85;14.98;;;10.90;99.90;;;;;;5052121;28;20131;-62
2023/05/12 03:41:31;;;;;;;18.92;15.70;;;10.80;99.90;;;;;;5052754;28;20049;-62
2023/05/12 03:43:58;;;;;;;18.58;16.33;;;10.70;99.90;;;;;;5056395;28;20045;-63
2023/05/12 03:46:25;;;;;;;19.33;17.15;;;10.70;99.90;;;;;;5056094;28;20041;-63
2023/05/12 03:48:52;;;;;;;19.00;16.15;;;10.70;99.90;;;;;;5056008;28;20106;-63
2023/05/12 03:51:19;;;;;;;19.90;15.77;;;10.70;99.90;;;;;;5055949;28;20037;-63
2023/05/12 03:53:46;;;;;;;22.67;17.30;;;10.70;99.90;;;;;;5056999;28;20488;-60
2023/05/12 03:56:14;;;;;;;20.60;16.63;;;10.80;99.90;;;;;;5055914;28;20053;-62
2023/05/12 03:58:41;;;;;;;21.20;16.15;;;10.80;99.90;;;;;;5056911;28;20033;-63
2023/05/12 04:01:08;;;;;;;22.58;16.77;;;10.70;99.90;;;;;;5055806;28;20098;-62
2023/05/12 04:03:34;;;;;;;22.88;16.63;;;10.70;99.90;;;;;;5056800;28;20045;-63
2023/05/12 04:06:01;;;;;;;22.08;16.45;;;10.80;99.90;;;;;;5057139;28;20092;-62
2023/05/12 04:08:28;;;;;;;21.55;17.20;;;10.80;99.90;;;;;;5039008;28;20079;-61
2023/05/12 04:10:56;;;;;;;24.63;18.60;;;10.80;99.90;;;;;;5056954;28;20051;-64
2023/05/12 04:13:23;;;;;;;22.27;16.83;;;10.90;99.90;;;;;;5055435;28;20131;-63
2023/05/12 04:15:50;;;;;;;26.65;17.45;;;10.90;99.90;;;;;;5055319;28;20412;-62
2023/05/12 04:18:17;;;;;;;24.67;17.48;;;10.80;99.90;;;;;;5056591;28;20099;-63
2023/05/12 04:20:44;;;;;;;23.08;16.77;;;10.80;99.90;;;;;;5055127;28;20061;-62
2023/05/12 04:23:11;;;;;;;24.33;16.98;;;10.80;99.90;;;;;;5055329;28;20431;-62
2023/05/12 04:25:37;;;;;;;22.98;16.02;;;10.70;99.90;;;;;;5055076;28;20408;-61
2023/05/12 04:28:04;;;;;;;21.95;14.65;;;10.70;99.90;;;;;;5055504;28;20380;-63
2023/05/12 04:30:31;;;;;;;21.52;15.13;;;10.70;99.90;;;;;;5054992;28;20041;-63
2023/05/12 04:32:58;;;;;;;19.83;14.10;;;10.70;99.90;;;;;;5055599;28;20037;-63
2023/05/12 04:35:25;;;;;;;18.65;13.73;;;10.70;99.90;;;;;;5056868;28;20041;-64
2023/05/12 04:37:52;;;;;;;15.48;12.35;;;10.70;99.90;;;;;;5055252;28;20102;-62
2023/05/12 04:40:19;;;;;;;18.63;13.32;;;10.70;99.90;;;;;;5056632;28;20408;-63
2023/05/12 04:42:46;;;;;;;15.00;12.48;;;10.70;99.90;;;;;;5055398;28;20102;-63
2023/05/12 04:45:14;;;;;;;16.60;12.45;;;10.70;99.90;;;;;;5054896;28;20575;-63
2023/05/12 04:47:41;;;;;;;20.15;12.73;;;10.70;99.90;;;;;;5055371;28;20037;-63
2023/05/12 04:50:09;;;;;;;16.48;11.88;;;10.70;99.90;;;;;;5056466;28;20056;-61
2023/05/12 04:52:36;;;;;;;16.92;12.25;;;10.70;99.90;;;;;;5056295;28;20041;-63
2023/05/12 04:55:03;;;;;;;15.50;11.93;;;10.70;99.90;;;;;;5055030;28;20470;-62
2023/05/12 04:57:30;;;;;;;14.15;11.80;;;10.70;99.90;;;;;;5055359;28;20075;-62
2023/05/12 04:59:58;;;;;;;18.15;13.18;;;10.70;99.90;;;;;;5055137;28;20059;-62
2023/05/12 05:02:25;;;;;;;16.00;12.95;;;10.80;99.90;;;;;;5055336;28;20045;-64
2023/05/12 05:04:53;;;;;;;14.07;11.30;;;10.70;99.90;;;;;;5054637;28;20056;-63
2023/05/12 05:07:22;;;;;;;14.10;10.85;;;10.70;99.90;;;;;;5054742;28;20070;-62
2023/05/12 05:09:49;;;;;;;12.10;10.05;;;10.70;99.90;;;;;;5055699;28;20033;-63
2023/05/12 05:12:17;;;;;;;14.93;9.93;;;10.70;99.90;;;;;;5038601;28;20086;-64
2023/05/12 05:14:43;;;;;;;13.75;9.70;;;10.60;99.90;;;;;;5054178;28;20047;-63
2023/05/12 05:17:11;;;;;;;12.98;9.00;;;10.60;99.90;;;;;;5054417;28;20056;-63
2023/05/12 05:19:39;;;;;;;13.07;9.82;;;10.60;99.90;;;;;;5054373;28;20044;-62
2023/05/12 05:22:21;;;;;;;13.27;9.77;;;10.60;99.90;;;;;;5054427;28;20049;-62
2023/05/12 05:24:48;;;;;;;11.65;9.82;;;10.60;99.90;;;;;;5054775;28;20061;-61
2023/05/12 05:27:15;;;;;;;13.02;9.95;;;10.60;99.90;;;;;;5055887;28;20047;-66
2023/05/12 05:29:42;;;;;;;11.82;10.10;;;10.60;99.90;;;;;;5054383;28;20388;-61
2023/05/12 05:32:09;;;;;;;10.98;9.68;;;10.70;99.90;;;;;;5054215;28;20095;-62
2023/05/12 05:34:35;;;;;;;12.80;10.50;;;10.70;99.90;;;;;;5054024;28;20430;-63
2023/05/12 05:37:02;;;;;;;12.85;11.00;;;10.70;99.90;;;;;;5054525;28;20098;-62
2023/05/12 05:39:29;;;;;;;13.45;10.68;;;10.70;99.90;;;;;;5055898;28;20132;-64
2023/05/12 05:41:56;;;;;;;15.20;10.93;;;10.70;99.90;;;;;;5055204;28;20048;-64
2023/05/12 05:44:23;;;;;;;15.50;11.10;;;10.80;99.90;;;;;;5054072;28;20492;-63
2023/05/12 05:46:51;;;;;;;16.23;11.57;;;10.90;99.90;;;;;;5053711;28;20037;-62
2023/05/12 05:49:18;;;;;;;18.10;12.57;;;10.90;99.90;;;;;;5054119;28;20116;-62
2023/05/12 05:51:46;;;;;;;18.58;12.88;;;10.90;99.90;;;;;;5054081;28;20124;-64
2023/05/12 05:54:14;;;;;;;14.05;11.20;;;10.90;99.90;;;;;;5054128;28;20037;-63
2023/05/12 05:56:41;;;;;;;18.45;12.80;;;11.00;99.90;;;;;;5054235;28;20044;-61
2023/05/12 05:59:08;;;;;;;15.95;12.50;;;11.00;99.90;;;;;;5053790;28;20041;-61
2023/05/12 06:01:35;;;;;;;15.30;12.50;;;11.00;99.90;;;;;;5053464;28;20052;-63
2023/05/12 06:04:02;;;;;;;14.05;11.50;;;11.00;99.90;;;;;;5053266;28;20049;-63
2023/05/12 06:06:30;;;;;;;18.98;12.48;;;11.10;99.90;;;;;;5053864;28;20099;-63
2023/05/12 06:08:58;;;;;;;19.33;13.63;;;11.20;99.90;;;;;;5053693;28;20064;-63
2023/05/12 06:11:25;;;;;;;16.55;13.70;;;11.20;99.90;;;;;;5053284;28;20052;-63
2023/05/12 06:13:52;;;;;;;15.40;12.10;;;11.30;99.90;;;;;;5053424;28;20566;-63
2023/05/12 06:16:19;;;;;;;15.85;12.55;;;11.40;99.90;;;;;;5064974;28;20060;-63
2023/05/12 06:18:45;;;;;;;17.27;13.15;;;11.40;99.90;;;;;;5056505;28;20044;-61
2023/05/12 06:21:12;;;;;;;14.27;11.68;;;11.50;99.90;;;;;;5074608;28;20052;-63
2023/05/12 06:23:39;;;;;;;14.00;11.63;;;11.50;99.90;;;;;;5074528;28;20037;-62
2023/05/12 06:26:06;;;;;;;15.98;10.50;;;11.60;99.90;;;;;;5056327;28;20491;-63
2023/05/12 06:28:33;;;;;;;14.75;11.05;;;11.70;99.90;;;;;;5074545;28;20040;-61
2023/05/12 06:31:00;;;;;;;14.95;10.57;;;11.70;99.90;;;;;;5056077;28;20051;-62
2023/05/12 06:33:27;;;;;;;15.10;10.30;;;11.70;99.90;;;;;;5074035;28;20037;-63
2023/05/12 06:35:54;;;;;;;13.55;10.23;;;11.80;99.90;;;;;;5056182;28;20044;-63
2023/05/12 06:38:21;;;;;;;13.77;10.13;;;11.80;99.90;;;;;;5056043;28;20049;-64
2023/05/12 06:40:47;;;;;;;13.93;9.52;;;11.80;99.90;;;;;;5056052;28;20389;-63
2023/05/12 06:43:14;;;;;;;14.13;9.80;;;11.90;99.90;;;;;;5073921;28;20113;-62
2023/05/12 06:45:43;;;;;;;11.18;8.90;;;11.90;99.90;;;;;;5055882;28;20062;-62
2023/05/12 06:48:10;;;;;;;11.23;9.07;;;11.90;99.90;;;;;;5074119;28;20459;-62
2023/05/12 06:50:37;;;;;;;11.15;9.13;;;12.00;99.90;;;;;;5055983;28;20131;-62
2023/05/12 06:53:05;;;;;;;12.13;9.10;;;12.10;99.90;;;;;;5056521;28;20044;-63
2023/05/12 06:55:31;;;;;;;11.77;8.13;;;12.10;99.90;;;;;;5056251;28;20060;-64
2023/05/12 06:57:58;;;;;;;9.57;8.27;;;12.20;99.90;;;;;;5074294;28;20044;-62
2023/05/12 07:00:25;;;;;;;10.15;7.28;;;12.20;99.90;;;;;;5074026;28;20048;-63
2023/05/12 07:02:52;;;;;;;11.85;7.55;;;12.30;99.90;;;;;;5074319;28;20090;-64
2023/05/12 07:05:19;;;;;;;9.32;6.90;;;12.30;99.90;;;;;;5073908;28;20045;-61
2023/05/12 07:07:47;;;;;;;12.05;6.78;;;12.30;99.90;;;;;;5073591;28;20037;-61
2023/05/12 07:10:13;;;;;;;14.73;7.70;;;12.40;99.90;;;;;;5073784;28;20033;-62
2023/05/12 07:12:40;;;;;;;11.60;6.40;;;12.40;99.90;;;;;;5073978;28;20480;-64
2023/05/12 07:15:07;;;;;;;11.65;6.13;;;12.40;99.90;;;;;;5073680;28;20047;-62
2023/05/12 07:17:34;;;;;;;10.68;6.47;;;12.50;99.90;;;;;;5072686;28;20072;-62
2023/05/12 07:20:01;;;;;;;11.73;7.00;;;12.60;99.90;;;;;;5073985;28;20124;-62
2023/05/12 07:22:28;;;;;;;8.70;5.50;;;12.70;99.90;;;;;;5073430;28;20091;-63
2023/05/12 07:24:55;;;;;;;10.13;6.25;;;12.80;99.90;;;;;;5074074;28;20049;-61
2023/05/12 07:27:21;;;;;;;11.80;5.95;;;12.90;99.90;;;;;;5073712;28;20041;-61
2023/05/12 07:29:48;;;;;;;10.18;4.80;;;12.80;99.90;;;;;;5073218;28;20122;-62
2023/05/12 07:32:15;;;;;;;12.15;4.50;;;12.80;99.90;;;;;;5073268;28;20072;-60
2023/05/12 07:34:42;;;;;;;10.52;4.88;;;12.70;99.90;;;;;;5073465;28;20047;-63
2023/05/12 07:37:09;;;;;;;11.57;4.75;;;12.80;99.90;;;;;;5073676;28;20456;-58
2023/05/12 07:39:36;;;;;;;9.13;4.75;;;12.90;99.90;;;;;;5073173;28;20048;-62
2023/05/12 07:42:02;;;;;;;10.50;5.10;;;13.10;99.90;;;;;;5073282;28;20041;-62
2023/05/12 07:44:29;;;;;;;11.95;5.22;;;13.20;99.90;;;;;;5073838;28;20480;-61
2023/05/12 07:46:56;;;;;;;8.15;4.40;;;13.30;99.90;;;;;;5073569;28;20044;-62
2023/05/12 07:49:23;;;;;;;7.35;3.92;;;13.30;99.90;;;;;;5073074;28;20075;-62
2023/05/12 07:51:50;;;;;;;8.38;3.78;;;13.30;99.90;;;;;;5072840;28;20032;-62
2023/05/12 07:54:16;;;;;;;6.03;3.03;;;13.20;99.90;;;;;;5073643;28;20444;-62
2023/05/12 07:56:43;;;;;;;10.02;3.35;;;13.30;99.90;;;;;;5073084;28;20068;-62
2023/05/12 07:59:11;;;;;;;7.75;2.55;;;13.40;99.90;;;;;;5053635;28;20549;-62
2023/05/12 08:01:38;;;;;;;6.22;2.33;;;13.40;99.90;;;;;;5073066;28;20499;-62
2023/05/12 08:04:05;;;;;;;5.65;2.30;;;13.40;99.90;;;;;;5107072;28;20153;-62
2023/05/12 08:06:33;;;;;;;6.15;2.10;;;13.50;99.90;;;;;;5113146;28;20481;-61
2023/05/12 08:09:00;;;;;;;9.18;2.47;;;13.50;99.90;;;;;;5099495;28;20399;-63
2023/05/12 08:11:26;;;;;;;8.88;2.67;;;13.40;99.90;;;;;;5092868;28;20475;-63
2023/05/12 08:13:53;;;;;;;5.20;2.28;;;13.30;99.90;;;;;;5101532;28;20043;-63
2023/05/12 08:16:20;;;;;;;5.80;2.15;;;13.40;99.90;;;;;;5112302;28;20047;-62
2023/05/12 08:18:47;;;;;;;6.72;2.25;;;13.40;99.90;;;;;;5112561;28;20046;-63
2023/05/12 08:21:13;;;;;;;8.30;2.63;;;13.60;99.90;;;;;;5112518;28;20036;-62
2023/05/12 08:23:40;;;;;;;10.15;2.58;;;13.70;99.90;;;;;;5101620;28;20047;-62
2023/05/12 08:26:07;;;;;;;5.97;1.80;;;13.80;99.90;;;;;;5092875;28;20503;-63
2023/05/12 08:28:34;;;;;;;4.07;2.08;;;13.70;99.90;;;;;;5095194;28;20040;-62
2023/05/12 08:31:01;;;;;;;5.45;2.10;;;13.60;99.90;;;;;;5096742;28;20118;-62
2023/05/12 08:33:30;;;;;;;5.18;2.03;;;13.70;99.90;;;;;;5096629;28;20119;-62
2023/05/12 08:35:57;;;;;;;5.47;2.05;;;13.50;99.90;;;;;;5096319;28;20123;-63
2023/05/12 08:38:23;;;;;;;5.72;1.75;;;13.50;99.90;;;;;;5096407;28;20097;-62
2023/05/12 08:40:50;;;;;;;6.03;1.77;;;13.60;99.90;;;;;;5061752;28;20059;-62
2023/05/12 08:43:17;;;;;;;7.57;2.15;;;13.50;99.90;;;;;;5096232;28;20418;-61
2023/05/12 08:45:44;;;;;;;7.70;1.90;;;13.60;99.90;;;;;;5096206;28;20040;-62
2023/05/12 08:48:12;;;;;;;7.45;2.17;;;13.80;99.90;;;;;;5096119;28;20048;-62
2023/05/12 08:50:39;;;;;;;7.20;2.10;;;13.80;99.90;;;;;;5096124;28;20489;-63
2023/05/12 08:53:06;;;;;;;8.02;2.28;;;13.80;99.90;;;;;;5096144;28;20055;-62
2023/05/12 08:55:32;;;;;;;8.20;2.17;;;13.70;99.90;;;;;;5096088;28;20063;-64
2023/05/12 08:58:00;;;;;;;8.82;2.60;;;13.80;99.90;;;;;;5095931;28;20487;-63
2023/05/12 09:00:27;;;;;;;6.95;2.38;;;13.80;99.90;;;;;;5096067;28;20047;-62
2023/05/12 09:02:54;;;;;;;12.05;2.25;;;13.90;99.90;;;;;;5095967;28;20494;-63
2023/05/12 09:05:21;;;;;;;8.70;2.00;;;13.80;99.90;;;;;;5096095;28;20040;-61
2023/05/12 09:07:48;;;;;;;6.25;2.00;;;13.80;99.90;;;;;;5095784;28;20060;-61
2023/05/12 09:10:18;;;;;;;7.47;1.90;;;13.80;99.90;;;;;;5094231;28;20036;-62
2023/05/12 09:13:00;;;;;;;6.57;1.88;;;13.90;99.90;;;;;;5095819;28;20058;-64
2023/05/12 09:15:27;;;;;;;5.25;1.75;;;13.90;99.90;;;;;;5094636;28;20056;-61
2023/05/12 09:17:53;;;;;;;7.70;1.90;;;13.90;99.90;;;;;;5095428;28;20434;-62
2023/05/12 09:20:20;;;;;;;6.53;1.70;;;13.80;99.90;;;;;;5095655;28;20043;-62
2023/05/12 09:22:57;;;;;;;6.45;1.60;;;13.80;99.90;;;;;;5095510;28;20810;-63
2023/05/12 09:25:23;;;;;;;4.65;1.42;;;13.80;99.90;;;;;;5077616;28;20403;-63
2023/05/12 09:27:50;;;;;;;5.13;1.30;;;13.90;99.90;;;;;;5095599;28;20042;-62
2023/05/12 09:30:17;;;;;;;5.85;1.67;;;14.00;99.90;;;;;;5095430;28;20483;-62
2023/05/12 09:32:44;;;;;;;7.40;1.30;;;14.10;99.90;;;;;;5095262;28;20040;-61
2023/05/12 09:35:11;;;;;;;5.97;1.83;;;14.10;99.90;;;;;;5095689;28;20097;-62
2023/05/12 09:37:38;;;;;;;6.70;1.70;;;14.10;99.90;;;;;;5089823;28;20159;-61
2023/05/12 09:40:05;;;;;;;5.28;1.73;;;14.20;99.90;;;;;;5092808;28;20040;-61
2023/05/12 09:42:32;;;;;;;6.43;1.70;;;14.10;99.90;;;;;;5095184;28;20040;-63
2023/05/12 09:44:59;;;;;;;7.45;1.77;;;14.10;99.90;;;;;;5094415;28;20105;-62
2023/05/12 09:47:26;;;;;;;4.55;1.58;;;14.10;99.90;;;;;;5095021;28;20048;-62
2023/05/12 09:49:54;;;;;;;5.00;1.45;;;14.00;99.90;;;;;;5094877;28;20040;-61
2023/05/12 09:52:21;;;;;;;8.48;1.60;;;14.00;99.90;;;;;;5094994;28;20047;-62
2023/05/12 09:54:48;;;;;;;5.13;1.55;;;14.00;99.90;;;;;;5095423;28;20080;-61
2023/05/12 09:57:15;;;;;;;5.68;1.77;;;14.00;99.90;;;;;;5094680;28;20483;-62
2023/05/12 09:59:42;;;;;;;4.82;1.42;;;13.90;99.90;;;;;;5093606;28;20406;-63
2023/05/12 10:02:09;;;;;;;5.53;1.85;;;13.70;99.90;;;;;;5094917;28;20101;-63
2023/05/12 10:04:40;;;;;;;8.07;1.58;;;13.60;99.90;;;;;;5112131;28;20047;-61
2023/05/12 10:07:07;;;;;;;5.85;2.10;;;13.50;99.90;;;;;;5114301;28;20070;-63
2023/05/12 10:09:34;;;;;;;4.43;1.52;;;13.30;99.90;;;;;;5113269;28;20039;-63
2023/05/12 10:12:01;;;;;;;3.30;1.52;;;13.20;99.90;;;;;;5096108;28;20561;-62
2023/05/12 10:14:28;;;;;;;6.68;1.63;;;13.10;99.90;;;;;;5114121;28;20040;-62
2023/05/12 10:16:55;;;;;;;4.90;1.60;;;13.10;99.90;;;;;;5113596;28;20509;-62
2023/05/12 10:19:22;;;;;;;5.50;1.70;;;13.00;99.90;;;;;;5114157;28;20521;-62
2023/05/12 10:21:49;;;;;;;5.03;1.60;;;13.00;99.90;;;;;;5095623;28;20521;-63
2023/05/12 10:24:15;;;;;;;5.15;1.63;;;13.00;99.90;;;;;;5114097;28;20090;-63
2023/05/12 10:26:43;;;;;;;6.68;1.83;;;13.10;99.90;;;;;;5113722;28;20486;-62
2023/05/12 10:29:10;;;;;;;7.60;1.77;;;12.90;99.90;;;;;;5101144;28;20041;-62
2023/05/12 10:31:37;;;;;;;5.70;1.77;;;12.80;99.90;;;;;;5094184;28;20097;-61
2023/05/12 10:34:05;;;;;;;4.55;1.52;;;12.60;99.90;;;;;;5094213;28;20063;-61
2023/05/12 10:36:32;;;;;;;6.57;1.80;;;12.50;99.90;;;;;;5094258;28;20123;-62
2023/05/12 10:38:59;;;;;;;5.75;1.48;;;12.40;99.90;;;;;;5094089;28;20097;-62
2023/05/12 10:41:25;;;;;;;3.85;1.20;;;12.30;99.90;;;;;;5094062;28;20041;-61
2023/05/12 10:43:52;;;;;;;5.97;1.30;;;12.20;99.90;;;;;;5094588;28;20094;-61
2023/05/12 10:46:19;;;;;;;7.55;1.80;;;12.10;99.90;;;;;;5093148;28;20437;-62
2023/05/12 10:48:46;;;;;;;8.95;1.90;;;12.10;99.90;;;;;;5094300;28;20036;-61
2023/05/12 10:51:13;;;;;;;6.80;1.88;;;12.10;99.90;;;;;;5093921;28;20051;-60
2023/05/12 10:53:40;;;;;;;6.53;1.60;;;12.10;99.90;;;;;;5094306;28;20105;-61
2023/05/12 10:56:14;;;;;;;7.33;2.03;;;12.00;99.90;;;;;;5094836;28;20059;-62
2023/05/12 10:58:41;;;;;;;5.70;1.83;;;11.90;99.90;;;;;;5113397;28;20050;-62
2023/05/12 11:01:08;;;;;;;8.57;2.30;;;11.90;99.90;;;;;;5088000;28;20439;-63
2023/05/12 11:03:36;;;;;;;9.15;1.98;;;11.90;99.90;;;;;;5094171;28;20047;-62
2023/05/12 11:06:04;;;;;;;4.85;2.03;;;11.80;99.90;;;;;;5093034;28;20454;-60
2023/05/12 11:08:33;;;;;;;5.90;1.90;;;11.80;99.90;;;;;;5089286;28;20379;-62
2023/05/12 11:11:01;;;;;;;6.88;2.28;;;11.80;99.90;;;;;;5093165;28;20032;-61
2023/05/12 11:13:28;;;;;;;9.15;2.30;;;11.80;99.90;;;;;;5094142;28;20039;-61
2023/05/12 11:15:58;;;;;;;5.93;1.77;;;11.80;99.90;;;;;;5092311;28;20123;-61
2023/05/12 11:18:25;;;;;;;5.15;1.88;;;11.80;99.90;;;;;;5093950;28;20120;-61
2023/05/12 11:20:51;;;;;;;5.57;1.80;;;11.70;99.90;;;;;;5092768;28;20402;-64
2023/05/12 11:23:18;;;;;;;6.78;1.35;;;11.70;99.90;;;;;;5093854;28;20040;-59
2023/05/12 11:25:45;;;;;;;7.97;1.90;;;11.70;99.90;;;;;;5093725;28;20055;-61
2023/05/12 11:28:12;;;;;;;3.50;1.40;;;11.70;99.90;;;;;;5092714;28;20506;-61
2023/05/12 11:30:39;;;;;;;5.35;1.83;;;11.70;99.90;;;;;;5093429;28;20494;-60
2023/05/12 11:33:05;;;;;;;6.45;1.70;;;11.70;99.90;;;;;;5092997;28;20051;-61
2023/05/12 11:35:32;;;;;;;4.72;1.50;;;11.60;99.90;;;;;;5100186;28;20101;-61
2023/05/12 11:38:01;;;;;;;4.90;1.40;;;11.60;99.90;;;;;;5101932;28;20044;-61
2023/05/12 11:40:28;;;;;;;6.05;1.60;;;11.50;99.90;;;;;;5094619;28;20143;-62
2023/05/12 11:42:55;;;;;;;5.32;1.45;;;11.50;99.90;;;;;;5101394;28;20044;-63
2023/05/12 11:45:22;;;;;;;4.13;1.52;;;11.60;99.90;;;;;;5108701;28;20508;-61
2023/05/12 11:47:49;;;;;;;6.32;2.22;;;11.50;99.90;;;;;;5106737;28;20032;-62
2023/05/12 11:50:16;;;;;;;4.15;1.52;;;11.50;99.90;;;;;;5074914;28;20415;-60
2023/05/12 11:52:43;;;;;;;7.32;1.70;;;11.50;99.90;;;;;;5092504;28;20036;-62
2023/05/12 11:55:10;;;;;;;6.68;1.80;;;11.50;99.90;;;;;;5093074;28;20052;-62
2023/05/12 11:57:37;;;;;;;5.53;1.80;;;11.50;99.90;;;;;;5092098;28;20072;-62
2023/05/12 12:00:04;;;;;;;3.72;1.50;;;11.50;99.90;;;;;;5092258;28;20471;-63
2023/05/12 12:02:35;;;;;;;5.82;1.85;;;11.50;99.90;;;;;;5094702;28;20044;-61
2023/05/12 12:05:02;;;;;;;4.28;1.42;;;11.50;99.90;;;;;;5096570;28;20029;-63
2023/05/12 12:07:30;;;;;;;4.40;1.35;;;11.50;99.90;;;;;;5079167;28;20135;-63
2023/05/12 12:09:57;;;;;;;4.63;1.92;;;11.50;99.90;;;;;;5095746;28;20127;-62
2023/05/12 12:12:24;;;;;;;3.60;1.90;;;11.50;99.90;;;;;;5097610;28;20051;-63
2023/05/12 12:14:51;;;;;;;3.63;1.30;;;11.50;99.90;;;;;;5092819;28;20032;-61
2023/05/12 12:17:17;;;;;;;3.45;1.45;;;11.50;99.90;;;;;;5096774;28;20052;-62
2023/05/12 12:19:46;;;;;;;5.15;2.28;;;11.50;99.90;;;;;;5096925;28;20035;-61
2023/05/12 12:22:13;;;;;;;3.22;1.25;;;11.50;99.90;;;;;;5095685;28;20055;-61
2023/05/12 12:24:40;;;;;;;4.72;1.90;;;11.50;99.90;;;;;;5096926;28;20048;-62
2023/05/12 12:27:06;;;;;;;6.63;1.75;;;11.50;99.90;;;;;;5095838;28;20407;-63
2023/05/12 12:29:34;;;;;;;5.03;1.70;;;11.50;99.90;;;;;;5096923;28;20047;-62
2023/05/12 12:32:00;;;;;;;2.83;1.55;;;11.50;99.90;;;;;;5078543;28;20101;-64
2023/05/12 12:34:27;;;;;;;3.38;1.60;;;11.60;99.90;;;;;;5095797;28;20036;-63
2023/05/12 12:36:54;;;;;;;5.35;1.75;;;11.60;99.90;;;;;;5096975;28;20646;-60